sensor_id;sensor_type;location;lat;lon;timestamp;P1;durP1;ratioP1;P2;durP2;ratioP2
60233;SDS011;49514;43.538;-5.708;2024-01-15T00:02:21;9.73;;;6.65;;
60233;SDS011;49514;43.538;-5.708;2024-01-15T00:04:48;10.82;;;6.93;;
60233;SDS011;49514;43.538;-5.708;2024-01-15T00:07:14;11.10;;;6.80;;
60233;SDS011;49514;43.538;-5.708;2024-01-15T00:09:41;12.38;;;7.18;;
60233;SDS011;49514;43.538;-5.708;2024-01-15T00:12:08;13.68;;;6.80;;
60233;SDS011;49514;43.538;-5.708;2024-01-15T00:14:35;11.75;;;7.03;;
60233;SDS011;49514;43.538;-5.708;2024-01-15T00:17:02;12.30;;;7.25;;
60233;SDS011;49514;43.538;-5.708;2024-01-15T00:19:29;10.60;;;7.05;;
60233;SDS011;49514;43.538;-5.708;2024-01-15T00:21:58;11.48;;;6.57;;
60233;SDS011;49514;43.538;-5.708;2024-01-15T00:24:25;13.38;;;7.13;;
60233;SDS011;49514;43.538;-5.708;2024-01-15T00:26:52;12.75;;;8.32;;
60233;SDS011;49514;43.538;-5.708;2024-01-15T00:29:19;10.65;;;7.55;;
60233;SDS011;49514;43.538;-5.708;2024-01-15T00:31:46;24.55;;;19.13;;
60233;SDS011;49514;43.538;-5.708;2024-01-15T00:34:13;26.70;;;21.23;;
60233;SDS011;49514;43.538;-5.708;2024-01-15T00:36:40;16.77;;;13.48;;
60233;SDS011;49514;43.538;-5.708;2024-01-15T00:39:07;12.18;;;7.60;;
60233;SDS011;49514;43.538;-5.708;2024-01-15T00:41:34;15.57;;;8.88;;
60233;SDS011;49514;43.538;-5.708;2024-01-15T00:44:01;15.20;;;9.60;;
60233;SDS011;49514;43.538;-5.708;2024-01-15T00:46:28;12.43;;;7.78;;
60233;SDS011;49514;43.538;-5.708;2024-01-15T00:48:55;12.85;;;8.70;;
60233;SDS011;49514;43.538;-5.708;2024-01-15T00:51:22;13.52;;;9.05;;
60233;SDS011;49514;43.538;-5.708;2024-01-15T00:53:49;9.82;;;6.68;;
60233;SDS011;49514;43.538;-5.708;2024-01-15T00:56:16;11.07;;;6.97;;
60233;SDS011;49514;43.538;-5.708;2024-01-15T00:58:43;13.40;;;6.70;;
60233;SDS011;49514;43.538;-5.708;2024-01-15T01:01:10;14.25;;;7.30;;
60233;SDS011;49514;43.538;-5.708;2024-01-15T01:03:37;17.85;;;7.88;;
60233;SDS011;49514;43.538;-5.708;2024-01-15T01:06:03;17.85;;;8.15;;
60233;SDS011;49514;43.538;-5.708;2024-01-15T01:08:30;23.10;;;8.82;;
60233;SDS011;49514;43.538;-5.708;2024-01-15T01:10:57;19.98;;;8.88;;
60233;SDS011;49514;43.538;-5.708;2024-01-15T01:13:25;14.90;;;7.75;;
60233;SDS011;49514;43.538;-5.708;2024-01-15T01:15:52;11.18;;;6.63;;
60233;SDS011;49514;43.538;-5.708;2024-01-15T01:18:19;11.63;;;6.70;;
60233;SDS011;49514;43.538;-5.708;2024-01-15T01:20:45;13.65;;;6.75;;
60233;SDS011;49514;43.538;-5.708;2024-01-15T01:23:12;14.27;;;7.38;;
60233;SDS011;49514;43.538;-5.708;2024-01-15T01:25:39;15.18;;;7.55;;
60233;SDS011;49514;43.538;-5.708;2024-01-15T01:28:06;18.20;;;8.75;;
60233;SDS011;49514;43.538;-5.708;2024-01-15T01:30:33;18.73;;;9.07;;
60233;SDS011;49514;43.538;-5.708;2024-01-15T01:33:00;33.75;;;10.65;;
60233;SDS011;49514;43.538;-5.708;2024-01-15T01:35:27;26.88;;;9.05;;
60233;SDS011;49514;43.538;-5.708;2024-01-15T01:37:54;22.58;;;8.85;;
60233;SDS011;49514;43.538;-5.708;2024-01-15T01:40:20;21.27;;;7.95;;
60233;SDS011;49514;43.538;-5.708;2024-01-15T01:42:48;22.90;;;8.20;;
60233;SDS011;49514;43.538;-5.708;2024-01-15T01:45:15;21.55;;;7.45;;
60233;SDS011;49514;43.538;-5.708;2024-01-15T01:47:41;16.10;;;6.80;;
60233;SDS011;49514;43.538;-5.708;2024-01-15T01:50:08;18.45;;;6.72;;
60233;SDS011;49514;43.538;-5.708;2024-01-15T01:52:35;21.73;;;7.53;;
60233;SDS011;49514;43.538;-5.708;2024-01-15T01:55:02;20.90;;;7.60;;
60233;SDS011;49514;43.538;-5.708;2024-01-15T01:57:30;16.10;;;7.53;;
60233;SDS011;49514;43.538;-5.708;2024-01-15T01:59:58;23.23;;;8.48;;
60233;SDS011;49514;43.538;-5.708;2024-01-15T02:02:25;20.73;;;8.75;;
60233;SDS011;49514;43.538;-5.708;2024-01-15T02:04:52;15.70;;;7.43;;
60233;SDS011;49514;43.538;-5.708;2024-01-15T02:07:19;10.27;;;6.20;;
60233;SDS011;49514;43.538;-5.708;2024-01-15T02:09:46;10.00;;;5.35;;
60233;SDS011;49514;43.538;-5.708;2024-01-15T02:12:12;13.25;;;5.65;;
60233;SDS011;49514;43.538;-5.708;2024-01-15T02:14:39;13.80;;;5.97;;
60233;SDS011;49514;43.538;-5.708;2024-01-15T02:17:06;11.60;;;5.70;;
60233;SDS011;49514;43.538;-5.708;2024-01-15T02:19:33;8.68;;;5.40;;
60233;SDS011;49514;43.538;-5.708;2024-01-15T02:22:00;7.90;;;5.03;;
60233;SDS011;49514;43.538;-5.708;2024-01-15T02:24:27;7.85;;;4.60;;
60233;SDS011;49514;43.538;-5.708;2024-01-15T02:26:54;7.25;;;4.60;;
60233;SDS011;49514;43.538;-5.708;2024-01-15T02:29:21;10.93;;;4.70;;
60233;SDS011;49514;43.538;-5.708;2024-01-15T02:31:49;10.50;;;4.70;;
60233;SDS011;49514;43.538;-5.708;2024-01-15T02:34:15;7.93;;;4.65;;
60233;SDS011;49514;43.538;-5.708;2024-01-15T02:36:42;12.63;;;5.20;;
60233;SDS011;49514;43.538;-5.708;2024-01-15T02:39:09;10.90;;;5.50;;
60233;SDS011;49514;43.538;-5.708;2024-01-15T02:41:36;10.20;;;5.85;;
60233;SDS011;49514;43.538;-5.708;2024-01-15T02:44:03;15.48;;;6.50;;
60233;SDS011;49514;43.538;-5.708;2024-01-15T02:46:29;14.27;;;7.00;;
60233;SDS011;49514;43.538;-5.708;2024-01-15T02:48:56;15.85;;;8.10;;
60233;SDS011;49514;43.538;-5.708;2024-01-15T02:51:23;23.52;;;9.52;;
60233;SDS011;49514;43.538;-5.708;2024-01-15T02:53:50;22.60;;;11.05;;
60233;SDS011;49514;43.538;-5.708;2024-01-15T02:56:17;27.60;;;12.77;;
60233;SDS011;49514;43.538;-5.708;2024-01-15T02:58:44;37.88;;;12.07;;
60233;SDS011;49514;43.538;-5.708;2024-01-15T03:01:10;45.38;;;10.43;;
60233;SDS011;49514;43.538;-5.708;2024-01-15T03:03:39;37.17;;;10.45;;
60233;SDS011;49514;43.538;-5.708;2024-01-15T03:06:06;27.88;;;9.50;;
60233;SDS011;49514;43.538;-5.708;2024-01-15T03:08:33;30.02;;;11.98;;
60233;SDS011;49514;43.538;-5.708;2024-01-15T03:11:01;27.98;;;12.95;;
60233;SDS011;49514;43.538;-5.708;2024-01-15T03:13:28;26.25;;;12.20;;
60233;SDS011;49514;43.538;-5.708;2024-01-15T03:15:54;28.95;;;12.63;;
60233;SDS011;49514;43.538;-5.708;2024-01-15T03:18:21;28.05;;;11.73;;
60233;SDS011;49514;43.538;-5.708;2024-01-15T03:20:48;28.95;;;13.43;;
60233;SDS011;49514;43.538;-5.708;2024-01-15T03:23:15;26.80;;;12.57;;
60233;SDS011;49514;43.538;-5.708;2024-01-15T03:25:42;27.95;;;11.55;;
60233;SDS011;49514;43.538;-5.708;2024-01-15T03:28:09;22.35;;;9.90;;
60233;SDS011;49514;43.538;-5.708;2024-01-15T03:30:35;27.70;;;11.40;;
60233;SDS011;49514;43.538;-5.708;2024-01-15T03:33:02;21.60;;;10.75;;
60233;SDS011;49514;43.538;-5.708;2024-01-15T03:35:29;26.92;;;11.35;;
60233;SDS011;49514;43.538;-5.708;2024-01-15T03:37:56;28.50;;;11.52;;
60233;SDS011;49514;43.538;-5.708;2024-01-15T03:40:23;26.42;;;10.25;;
60233;SDS011;49514;43.538;-5.708;2024-01-15T03:42:50;31.48;;;8.90;;
60233;SDS011;49514;43.538;-5.708;2024-01-15T03:45:17;25.38;;;9.15;;
60233;SDS011;49514;43.538;-5.708;2024-01-15T03:47:44;32.25;;;8.52;;
60233;SDS011;49514;43.538;-5.708;2024-01-15T03:50:11;52.67;;;8.30;;
60233;SDS011;49514;43.538;-5.708;2024-01-15T03:52:38;52.63;;;8.95;;
60233;SDS011;49514;43.538;-5.708;2024-01-15T03:55:05;38.35;;;7.43;;
60233;SDS011;49514;43.538;-5.708;2024-01-15T03:57:32;52.05;;;8.13;;
60233;SDS011;49514;43.538;-5.708;2024-01-15T03:59:58;44.03;;;7.85;;
60233;SDS011;49514;43.538;-5.708;2024-01-15T04:02:25;55.55;;;8.98;;
60233;SDS011;49514;43.538;-5.708;2024-01-15T04:04:52;38.85;;;11.65;;
60233;SDS011;49514;43.538;-5.708;2024-01-15T04:07:19;52.33;;;18.00;;
60233;SDS011;49514;43.538;-5.708;2024-01-15T04:09:46;56.85;;;22.67;;
60233;SDS011;49514;43.538;-5.708;2024-01-15T04:12:13;49.50;;;21.20;;
60233;SDS011;49514;43.538;-5.708;2024-01-15T04:14:39;42.33;;;19.08;;
60233;SDS011;49514;43.538;-5.708;2024-01-15T04:17:06;39.28;;;15.75;;
60233;SDS011;49514;43.538;-5.708;2024-01-15T04:19:33;38.33;;;15.07;;
60233;SDS011;49514;43.538;-5.708;2024-01-15T04:22:00;40.30;;;14.05;;
60233;SDS011;49514;43.538;-5.708;2024-01-15T04:24:27;33.65;;;12.43;;
60233;SDS011;49514;43.538;-5.708;2024-01-15T04:26:54;28.85;;;10.75;;
60233;SDS011;49514;43.538;-5.708;2024-01-15T04:29:21;25.38;;;8.98;;
60233;SDS011;49514;43.538;-5.708;2024-01-15T04:31:47;26.02;;;9.38;;
60233;SDS011;49514;43.538;-5.708;2024-01-15T04:34:14;23.40;;;8.23;;
60233;SDS011;49514;43.538;-5.708;2024-01-15T04:36:41;28.23;;;6.68;;
60233;SDS011;49514;43.538;-5.708;2024-01-15T04:39:08;43.42;;;6.43;;
60233;SDS011;49514;43.538;-5.708;2024-01-15T04:41:35;32.15;;;6.07;;
60233;SDS011;49514;43.538;-5.708;2024-01-15T04:44:02;30.35;;;5.47;;
60233;SDS011;49514;43.538;-5.708;2024-01-15T04:46:28;24.00;;;6.13;;
60233;SDS011;49514;43.538;-5.708;2024-01-15T04:48:55;24.20;;;6.25;;
60233;SDS011;49514;43.538;-5.708;2024-01-15T04:51:22;18.42;;;5.20;;
60233;SDS011;49514;43.538;-5.708;2024-01-15T04:53:49;22.85;;;5.80;;
60233;SDS011;49514;43.538;-5.708;2024-01-15T04:56:16;19.85;;;6.57;;
60233;SDS011;49514;43.538;-5.708;2024-01-15T04:58:43;28.33;;;10.15;;
60233;SDS011;49514;43.538;-5.708;2024-01-15T05:01:10;29.42;;;11.88;;
60233;SDS011;49514;43.538;-5.708;2024-01-15T05:03:37;19.00;;;7.82;;
60233;SDS011;49514;43.538;-5.708;2024-01-15T05:06:05;19.17;;;5.53;;
60233;SDS011;49514;43.538;-5.708;2024-01-15T05:08:31;19.85;;;6.05;;
60233;SDS011;49514;43.538;-5.708;2024-01-15T05:10:58;11.30;;;5.10;;
60233;SDS011;49514;43.538;-5.708;2024-01-15T05:13:25;18.70;;;4.70;;
60233;SDS011;49514;43.538;-5.708;2024-01-15T05:15:52;9.90;;;3.92;;
60233;SDS011;49514;43.538;-5.708;2024-01-15T05:18:19;15.60;;;4.30;;
60233;SDS011;49514;43.538;-5.708;2024-01-15T05:20:46;13.95;;;4.53;;
60233;SDS011;49514;43.538;-5.708;2024-01-15T05:23:13;12.43;;;4.82;;
60233;SDS011;49514;43.538;-5.708;2024-01-15T05:25:39;15.98;;;4.97;;
60233;SDS011;49514;43.538;-5.708;2024-01-15T05:28:06;16.60;;;4.65;;
60233;SDS011;49514;43.538;-5.708;2024-01-15T05:30:33;22.58;;;4.88;;
60233;SDS011;49514;43.538;-5.708;2024-01-15T05:33:00;25.67;;;5.20;;
60233;SDS011;49514;43.538;-5.708;2024-01-15T05:35:28;29.02;;;4.70;;
60233;SDS011;49514;43.538;-5.708;2024-01-15T05:37:56;24.30;;;4.05;;
60233;SDS011;49514;43.538;-5.708;2024-01-15T05:40:22;15.32;;;3.90;;
60233;SDS011;49514;43.538;-5.708;2024-01-15T05:42:49;14.25;;;3.80;;
60233;SDS011;49514;43.538;-5.708;2024-01-15T05:45:16;15.18;;;4.30;;
60233;SDS011;49514;43.538;-5.708;2024-01-15T05:47:43;11.02;;;4.47;;
60233;SDS011;49514;43.538;-5.708;2024-01-15T05:50:10;17.48;;;5.10;;
60233;SDS011;49514;43.538;-5.708;2024-01-15T05:52:37;22.67;;;7.10;;
60233;SDS011;49514;43.538;-5.708;2024-01-15T05:55:04;15.65;;;5.32;;
60233;SDS011;49514;43.538;-5.708;2024-01-15T05:57:31;8.90;;;4.55;;
60233;SDS011;49514;43.538;-5.708;2024-01-15T05:59:58;11.77;;;5.18;;
60233;SDS011;49514;43.538;-5.708;2024-01-15T06:02:25;17.48;;;5.68;;
60233;SDS011;49514;43.538;-5.708;2024-01-15T06:04:51;18.70;;;4.57;;
60233;SDS011;49514;43.538;-5.708;2024-01-15T06:07:18;16.25;;;4.90;;
60233;SDS011;49514;43.538;-5.708;2024-01-15T06:09:45;21.17;;;3.97;;
60233;SDS011;49514;43.538;-5.708;2024-01-15T06:12:12;17.05;;;4.57;;
60233;SDS011;49514;43.538;-5.708;2024-01-15T06:14:39;18.55;;;4.97;;
60233;SDS011;49514;43.538;-5.708;2024-01-15T06:17:07;25.00;;;4.20;;
60233;SDS011;49514;43.538;-5.708;2024-01-15T06:19:34;19.05;;;4.88;;
60233;SDS011;49514;43.538;-5.708;2024-01-15T06:22:01;23.42;;;5.43;;
60233;SDS011;49514;43.538;-5.708;2024-01-15T06:24:28;22.05;;;5.50;;
60233;SDS011;49514;43.538;-5.708;2024-01-15T06:26:54;17.45;;;6.25;;
60233;SDS011;49514;43.538;-5.708;2024-01-15T06:29:21;23.77;;;5.80;;
60233;SDS011;49514;43.538;-5.708;2024-01-15T06:31:49;23.05;;;6.65;;
60233;SDS011;49514;43.538;-5.708;2024-01-15T06:34:16;29.20;;;9.05;;
60233;SDS011;49514;43.538;-5.708;2024-01-15T06:36:43;27.10;;;10.40;;
60233;SDS011;49514;43.538;-5.708;2024-01-15T06:39:10;37.05;;;8.98;;
60233;SDS011;49514;43.538;-5.708;2024-01-15T06:41:37;24.45;;;8.65;;
60233;SDS011;49514;43.538;-5.708;2024-01-15T06:44:09;26.33;;;9.55;;
60233;SDS011;49514;43.538;-5.708;2024-01-15T06:46:37;29.23;;;10.25;;
60233;SDS011;49514;43.538;-5.708;2024-01-15T06:49:08;27.52;;;9.60;;
60233;SDS011;49514;43.538;-5.708;2024-01-15T06:51:35;27.80;;;8.13;;
60233;SDS011;49514;43.538;-5.708;2024-01-15T06:54:02;29.00;;;9.30;;
60233;SDS011;49514;43.538;-5.708;2024-01-15T06:56:29;33.28;;;7.97;;
60233;SDS011;49514;43.538;-5.708;2024-01-15T06:58:56;35.00;;;7.03;;
60233;SDS011;49514;43.538;-5.708;2024-01-15T07:01:24;32.90;;;6.03;;
60233;SDS011;49514;43.538;-5.708;2024-01-15T07:03:51;28.45;;;5.45;;
60233;SDS011;49514;43.538;-5.708;2024-01-15T07:06:18;24.02;;;5.88;;
60233;SDS011;49514;43.538;-5.708;2024-01-15T07:08:45;29.85;;;5.85;;
60233;SDS011;49514;43.538;-5.708;2024-01-15T07:11:12;23.98;;;6.05;;
60233;SDS011;49514;43.538;-5.708;2024-01-15T07:13:39;30.08;;;7.35;;
60233;SDS011;49514;43.538;-5.708;2024-01-15T07:16:06;33.25;;;9.45;;
60233;SDS011;49514;43.538;-5.708;2024-01-15T07:18:33;23.42;;;6.53;;
60233;SDS011;49514;43.538;-5.708;2024-01-15T07:21:00;28.92;;;6.05;;
60233;SDS011;49514;43.538;-5.708;2024-01-15T07:23:28;33.95;;;8.23;;
60233;SDS011;49514;43.538;-5.708;2024-01-15T07:25:55;27.63;;;8.15;;
60233;SDS011;49514;43.538;-5.708;2024-01-15T07:28:22;27.73;;;6.85;;
60233;SDS011;49514;43.538;-5.708;2024-01-15T07:30:50;19.80;;;6.13;;
60233;SDS011;49514;43.538;-5.708;2024-01-15T07:33:18;20.45;;;5.25;;
60233;SDS011;49514;43.538;-5.708;2024-01-15T07:35:44;11.57;;;3.72;;
60233;SDS011;49514;43.538;-5.708;2024-01-15T07:38:11;15.25;;;4.68;;
60233;SDS011;49514;43.538;-5.708;2024-01-15T07:40:38;18.30;;;6.50;;
60233;SDS011;49514;43.538;-5.708;2024-01-15T07:43:05;20.08;;;6.88;;
60233;SDS011;49514;43.538;-5.708;2024-01-15T07:45:32;27.52;;;7.78;;
60233;SDS011;49514;43.538;-5.708;2024-01-15T07:47:59;16.67;;;5.18;;
60233;SDS011;49514;43.538;-5.708;2024-01-15T07:50:26;19.00;;;5.68;;
60233;SDS011;49514;43.538;-5.708;2024-01-15T07:52:53;39.08;;;13.75;;
60233;SDS011;49514;43.538;-5.708;2024-01-15T07:55:19;32.45;;;12.48;;
60233;SDS011;49514;43.538;-5.708;2024-01-15T07:57:46;39.80;;;14.35;;
60233;SDS011;49514;43.538;-5.708;2024-01-15T08:00:14;44.28;;;11.15;;
60233;SDS011;49514;43.538;-5.708;2024-01-15T08:02:41;11.88;;;4.55;;
60233;SDS011;49514;43.538;-5.708;2024-01-15T08:05:08;14.75;;;5.15;;
60233;SDS011;49514;43.538;-5.708;2024-01-15T08:07:35;12.88;;;4.32;;
60233;SDS011;49514;43.538;-5.708;2024-01-15T08:10:02;11.18;;;3.90;;
60233;SDS011;49514;43.538;-5.708;2024-01-15T08:12:29;21.80;;;8.68;;
60233;SDS011;49514;43.538;-5.708;2024-01-15T08:17:22;38.75;;;8.85;;
60233;SDS011;49514;43.538;-5.708;2024-01-15T08:19:54;31.80;;;5.25;;
60233;SDS011;49514;43.538;-5.708;2024-01-15T08:22:22;33.28;;;3.75;;
60233;SDS011;49514;43.538;-5.708;2024-01-15T08:24:49;19.55;;;3.25;;
60233;SDS011;49514;43.538;-5.708;2024-01-15T08:27:16;13.55;;;3.70;;
60233;SDS011;49514;43.538;-5.708;2024-01-15T08:29:43;43.13;;;4.80;;
60233;SDS011;49514;43.538;-5.708;2024-01-15T08:32:10;30.80;;;4.90;;
60233;SDS011;49514;43.538;-5.708;2024-01-15T08:34:39;17.02;;;3.10;;
60233;SDS011;49514;43.538;-5.708;2024-01-15T08:37:06;14.75;;;3.00;;
60233;SDS011;49514;43.538;-5.708;2024-01-15T08:39:33;23.85;;;4.45;;
60233;SDS011;49514;43.538;-5.708;2024-01-15T08:42:00;13.65;;;4.30;;
60233;SDS011;49514;43.538;-5.708;2024-01-15T08:44:27;10.18;;;3.85;;
60233;SDS011;49514;43.538;-5.708;2024-01-15T08:46:55;27.10;;;5.47;;
60233;SDS011;49514;43.538;-5.708;2024-01-15T08:49:22;19.45;;;5.18;;
60233;SDS011;49514;43.538;-5.708;2024-01-15T08:51:49;19.10;;;5.78;;
60233;SDS011;49514;43.538;-5.708;2024-01-15T08:54:16;18.70;;;5.43;;
60233;SDS011;49514;43.538;-5.708;2024-01-15T08:56:43;11.95;;;4.25;;
60233;SDS011;49514;43.538;-5.708;2024-01-15T08:59:10;11.57;;;3.85;;
60233;SDS011;49514;43.538;-5.708;2024-01-15T09:01:38;10.50;;;2.95;;
60233;SDS011;49514;43.538;-5.708;2024-01-15T09:04:05;5.32;;;2.15;;
60233;SDS011;49514;43.538;-5.708;2024-01-15T09:06:32;9.98;;;2.03;;
60233;SDS011;49514;43.538;-5.708;2024-01-15T09:08:59;3.58;;;1.85;;
60233;SDS011;49514;43.538;-5.708;2024-01-15T09:11:26;6.10;;;2.03;;
60233;SDS011;49514;43.538;-5.708;2024-01-15T09:13:53;5.13;;;2.30;;
60233;SDS011;49514;43.538;-5.708;2024-01-15T09:16:19;6.43;;;2.63;;
60233;SDS011;49514;43.538;-5.708;2024-01-15T09:18:46;3.53;;;1.90;;
60233;SDS011;49514;43.538;-5.708;2024-01-15T09:21:13;6.68;;;2.25;;
60233;SDS011;49514;43.538;-5.708;2024-01-15T09:23:42;15.25;;;2.70;;
60233;SDS011;49514;43.538;-5.708;2024-01-15T09:26:09;9.52;;;2.40;;
60233;SDS011;49514;43.538;-5.708;2024-01-15T09:28:36;6.88;;;2.15;;
60233;SDS011;49514;43.538;-5.708;2024-01-15T09:31:03;7.88;;;2.33;;
60233;SDS011;49514;43.538;-5.708;2024-01-15T09:33:29;5.13;;;2.22;;
60233;SDS011;49514;43.538;-5.708;2024-01-15T09:35:56;8.32;;;2.47;;
60233;SDS011;49514;43.538;-5.708;2024-01-15T09:38:23;5.47;;;2.70;;
60233;SDS011;49514;43.538;-5.708;2024-01-15T09:40:50;14.45;;;2.97;;
60233;SDS011;49514;43.538;-5.708;2024-01-15T09:43:18;6.72;;;2.72;;
60233;SDS011;49514;43.538;-5.708;2024-01-15T09:48:12;18.27;;;4.25;;
60233;SDS011;49514;43.538;-5.708;2024-01-15T09:50:39;25.15;;;4.45;;
60233;SDS011;49514;43.538;-5.708;2024-01-15T09:53:06;16.85;;;4.45;;
60233;SDS011;49514;43.538;-5.708;2024-01-15T09:55:33;17.85;;;5.35;;
60233;SDS011;49514;43.538;-5.708;2024-01-15T09:58:00;21.25;;;4.82;;
60233;SDS011;49514;43.538;-5.708;2024-01-15T10:00:28;16.83;;;4.05;;
60233;SDS011;49514;43.538;-5.708;2024-01-15T10:02:57;12.35;;;3.63;;
60233;SDS011;49514;43.538;-5.708;2024-01-15T10:05:26;7.53;;;3.10;;
60233;SDS011;49514;43.538;-5.708;2024-01-15T10:07:53;14.48;;;3.78;;
60233;SDS011;49514;43.538;-5.708;2024-01-15T10:10:20;29.92;;;5.18;;
60233;SDS011;49514;43.538;-5.708;2024-01-15T10:12:48;33.33;;;5.05;;
60233;SDS011;49514;43.538;-5.708;2024-01-15T10:15:16;15.77;;;3.75;;
60233;SDS011;49514;43.538;-5.708;2024-01-15T10:17:43;16.65;;;3.50;;
60233;SDS011;49514;43.538;-5.708;2024-01-15T10:39:43;16.77;;;4.45;;
60233;SDS011;49514;43.538;-5.708;2024-01-15T10:42:12;17.50;;;5.00;;
60233;SDS011;49514;43.538;-5.708;2024-01-15T10:44:39;17.60;;;5.28;;
60233;SDS011;49514;43.538;-5.708;2024-01-15T10:47:09;18.10;;;5.75;;
60233;SDS011;49514;43.538;-5.708;2024-01-15T10:49:36;19.50;;;6.10;;
60233;SDS011;49514;43.538;-5.708;2024-01-15T10:52:03;12.80;;;5.63;;
60233;SDS011;49514;43.538;-5.708;2024-01-15T10:54:31;14.77;;;5.00;;
60233;SDS011;49514;43.538;-5.708;2024-01-15T10:56:58;16.10;;;5.53;;
60233;SDS011;49514;43.538;-5.708;2024-01-15T10:59:26;13.45;;;5.15;;
60233;SDS011;49514;43.538;-5.708;2024-01-15T11:01:53;13.68;;;5.30;;
60233;SDS011;49514;43.538;-5.708;2024-01-15T11:04:20;10.85;;;4.82;;
60233;SDS011;49514;43.538;-5.708;2024-01-15T11:06:52;12.23;;;5.50;;
60233;SDS011;49514;43.538;-5.708;2024-01-15T11:38:49;5.95;;;2.25;;
60233;SDS011;49514;43.538;-5.708;2024-01-15T11:41:16;9.63;;;2.85;;
60233;SDS011;49514;43.538;-5.708;2024-01-15T11:43:43;8.20;;;1.80;;
60233;SDS011;49514;43.538;-5.708;2024-01-15T11:46:10;3.88;;;1.27;;
60233;SDS011;49514;43.538;-5.708;2024-01-15T11:48:44;5.68;;;1.48;;
60233;SDS011;49514;43.538;-5.708;2024-01-15T11:51:11;5.03;;;1.17;;
60233;SDS011;49514;43.538;-5.708;2024-01-15T11:53:45;6.68;;;0.95;;
60233;SDS011;49514;43.538;-5.708;2024-01-15T11:56:17;7.05;;;1.52;;
60233;SDS011;49514;43.538;-5.708;2024-01-15T11:58:44;7.40;;;2.03;;
60233;SDS011;49514;43.538;-5.708;2024-01-15T12:01:11;4.95;;;2.05;;
60233;SDS011;49514;43.538;-5.708;2024-01-15T12:03:38;13.70;;;1.90;;
60233;SDS011;49514;43.538;-5.708;2024-01-15T12:06:05;4.57;;;1.73;;
60233;SDS011;49514;43.538;-5.708;2024-01-15T12:08:33;8.35;;;1.75;;
60233;SDS011;49514;43.538;-5.708;2024-01-15T12:11:00;6.28;;;1.92;;
60233;SDS011;49514;43.538;-5.708;2024-01-15T12:13:31;3.53;;;1.80;;
60233;SDS011;49514;43.538;-5.708;2024-01-15T12:16:01;4.70;;;1.80;;
60233;SDS011;49514;43.538;-5.708;2024-01-15T12:18:31;4.78;;;1.70;;
60233;SDS011;49514;43.538;-5.708;2024-01-15T12:20:57;5.78;;;1.40;;
60233;SDS011;49514;43.538;-5.708;2024-01-15T12:23:24;5.65;;;1.40;;
60233;SDS011;49514;43.538;-5.708;2024-01-15T12:25:53;3.33;;;1.63;;
60233;SDS011;49514;43.538;-5.708;2024-01-15T12:28:20;3.65;;;1.23;;
60233;SDS011;49514;43.538;-5.708;2024-01-15T12:30:47;3.42;;;1.00;;
60233;SDS011;49514;43.538;-5.708;2024-01-15T12:33:17;5.15;;;1.67;;
60233;SDS011;49514;43.538;-5.708;2024-01-15T12:35:46;3.83;;;1.40;;
60233;SDS011;49514;43.538;-5.708;2024-01-15T13:00:18;2.40;;;1.40;;
60233;SDS011;49514;43.538;-5.708;2024-01-15T13:02:45;5.72;;;1.40;;
60233;SDS011;49514;43.538;-5.708;2024-01-15T13:05:12;2.53;;;1.20;;
60233;SDS011;49514;43.538;-5.708;2024-01-15T13:22:19;1.80;;;1.10;;
60233;SDS011;49514;43.538;-5.708;2024-01-15T13:24:46;2.28;;;1.20;;
60233;SDS011;49514;43.538;-5.708;2024-01-15T13:27:13;2.95;;;1.15;;
60233;SDS011;49514;43.538;-5.708;2024-01-15T13:29:40;2.30;;;1.20;;
60233;SDS011;49514;43.538;-5.708;2024-01-15T13:32:07;2.70;;;1.10;;
60233;SDS011;49514;43.538;-5.708;2024-01-15T13:34:36;2.90;;;1.20;;
60233;SDS011;49514;43.538;-5.708;2024-01-15T13:37:03;2.35;;;1.27;;
60233;SDS011;49514;43.538;-5.708;2024-01-15T13:39:30;2.30;;;1.10;;
60233;SDS011;49514;43.538;-5.708;2024-01-15T13:41:59;3.43;;;1.30;;
60233;SDS011;49514;43.538;-5.708;2024-01-15T13:44:26;4.35;;;1.85;;
60233;SDS011;49514;43.538;-5.708;2024-01-15T13:46:53;5.28;;;1.70;;
60233;SDS011;49514;43.538;-5.708;2024-01-15T13:49:20;3.78;;;1.80;;
60233;SDS011;49514;43.538;-5.708;2024-01-15T13:51:47;3.92;;;2.05;;
60233;SDS011;49514;43.538;-5.708;2024-01-15T13:54:15;3.30;;;2.00;;
60233;SDS011;49514;43.538;-5.708;2024-01-15T13:56:42;5.83;;;2.80;;
60233;SDS011;49514;43.538;-5.708;2024-01-15T13:59:10;7.50;;;2.72;;
60233;SDS011;49514;43.538;-5.708;2024-01-15T14:01:37;5.50;;;2.40;;
60233;SDS011;49514;43.538;-5.708;2024-01-15T14:04:04;7.60;;;2.40;;
60233;SDS011;49514;43.538;-5.708;2024-01-15T14:06:31;5.95;;;1.63;;
60233;SDS011;49514;43.538;-5.708;2024-01-15T14:08:58;3.30;;;1.30;;
60233;SDS011;49514;43.538;-5.708;2024-01-15T14:11:25;5.03;;;1.30;;
60233;SDS011;49514;43.538;-5.708;2024-01-15T14:13:52;2.97;;;1.17;;
60233;SDS011;49514;43.538;-5.708;2024-01-15T14:16:19;4.15;;;1.15;;
60233;SDS011;49514;43.538;-5.708;2024-01-15T14:18:46;4.03;;;1.10;;
60233;SDS011;49514;43.538;-5.708;2024-01-15T14:21:14;3.45;;;1.00;;
60233;SDS011;49514;43.538;-5.708;2024-01-15T14:23:41;4.00;;;0.82;;
60233;SDS011;49514;43.538;-5.708;2024-01-15T14:26:08;3.88;;;1.13;;
60233;SDS011;49514;43.538;-5.708;2024-01-15T14:28:35;4.80;;;0.90;;
60233;SDS011;49514;43.538;-5.708;2024-01-15T14:31:02;2.97;;;1.00;;
60233;SDS011;49514;43.538;-5.708;2024-01-15T14:33:31;4.63;;;1.20;;
60233;SDS011;49514;43.538;-5.708;2024-01-15T14:35:58;2.60;;;1.30;;
60233;SDS011;49514;43.538;-5.708;2024-01-15T14:38:25;4.97;;;1.30;;
60233;SDS011;49514;43.538;-5.708;2024-01-15T14:40:52;4.57;;;1.75;;
60233;SDS011;49514;43.538;-5.708;2024-01-15T14:43:19;5.55;;;1.90;;
60233;SDS011;49514;43.538;-5.708;2024-01-15T14:45:47;6.63;;;1.70;;
60233;SDS011;49514;43.538;-5.708;2024-01-15T14:48:14;7.40;;;1.55;;
60233;SDS011;49514;43.538;-5.708;2024-01-15T14:50:40;5.55;;;1.55;;
60233;SDS011;49514;43.538;-5.708;2024-01-15T14:53:07;5.63;;;1.30;;
60233;SDS011;49514;43.538;-5.708;2024-01-15T14:55:35;8.30;;;1.73;;
60233;SDS011;49514;43.538;-5.708;2024-01-15T14:58:02;6.03;;;1.60;;
60233;SDS011;49514;43.538;-5.708;2024-01-15T15:00:29;7.13;;;1.75;;
60233;SDS011;49514;43.538;-5.708;2024-01-15T15:02:56;5.95;;;1.40;;
60233;SDS011;49514;43.538;-5.708;2024-01-15T15:05:23;6.85;;;1.67;;
60233;SDS011;49514;43.538;-5.708;2024-01-15T15:07:51;7.75;;;1.65;;
60233;SDS011;49514;43.538;-5.708;2024-01-15T15:10:18;5.93;;;1.65;;
60233;SDS011;49514;43.538;-5.708;2024-01-15T15:12:45;6.90;;;1.90;;
60233;SDS011;49514;43.538;-5.708;2024-01-15T15:15:12;7.85;;;2.08;;
60233;SDS011;49514;43.538;-5.708;2024-01-15T15:17:40;8.30;;;2.53;;
60233;SDS011;49514;43.538;-5.708;2024-01-15T15:20:07;5.00;;;1.83;;
60233;SDS011;49514;43.538;-5.708;2024-01-15T15:22:34;7.82;;;2.00;;
60233;SDS011;49514;43.538;-5.708;2024-01-15T15:25:01;5.55;;;1.83;;
60233;SDS011;49514;43.538;-5.708;2024-01-15T15:27:28;7.32;;;2.50;;
60233;SDS011;49514;43.538;-5.708;2024-01-15T15:29:55;9.23;;;2.27;;
60233;SDS011;49514;43.538;-5.708;2024-01-15T15:32:22;5.72;;;1.70;;
60233;SDS011;49514;43.538;-5.708;2024-01-15T15:34:49;8.17;;;2.10;;
60233;SDS011;49514;43.538;-5.708;2024-01-15T15:37:16;7.95;;;2.72;;
60233;SDS011;49514;43.538;-5.708;2024-01-15T15:39:43;9.02;;;2.88;;
60233;SDS011;49514;43.538;-5.708;2024-01-15T15:42:10;14.55;;;5.25;;
60233;SDS011;49514;43.538;-5.708;2024-01-15T15:44:39;7.78;;;3.00;;
60233;SDS011;49514;43.538;-5.708;2024-01-15T15:47:14;8.00;;;2.70;;
60233;SDS011;49514;43.538;-5.708;2024-01-15T15:49:41;6.88;;;2.50;;
60233;SDS011;49514;43.538;-5.708;2024-01-15T15:52:08;8.82;;;4.82;;
60233;SDS011;49514;43.538;-5.708;2024-01-15T15:54:36;7.32;;;2.55;;